Portada
METAR-TAF:

METAR-TAF

Aeroports :

Novosibirsk, Rússia

latitud: 55-01N, longitud: 082-38E, altitud: 111 m

Observació

L'informe es va fer fa 19 minuts, a les 08:30 UTC
Vent 2 kt amb direcció variable
Temperatura 15°C
Humitat 67%
Pressió 1016 hPa
Visibilitat 10 km o més
Cel ennuvolat a una alçada de 2500 ft

METAR: UNNT 060830Z VRB01MPS 9999 BKN025 15/09 Q1016 R25/090070 R16/090070 NOSIG RMK QFE752/1003

Hora: 15:49 (08:49 UTC)

Pronòstic

L'informe es va fer fa 49 minuts, a les 08:00 UTC
Pronòstic vàlid del 06 a les 09 UTC al 07 a les 09 UTC
Vent 6 kt del Oest amb ràfegues de 16 kt
Visibilitat 10 km o més
Cel ennuvolat a una alçada de 1600 ft, Cumulonimbus.
Evolucionant progressivament
l' 06 a les 12 UTC al 06 a les 15 UTC
Cel ennuvolat a una alçada de 5100 ft, Cumulonimbus.
Evolucionant progressivament
l' 07 a les 03 UTC al 07 a les 06 UTC
Vent 12 kt del Nord-Oest amb ràfegues de 25 kt

TAF: UNNT 060800Z 0609/0709 28003G08MPS 9999 BKN016CB BECMG 0612/0615 BKN051CB BECMG 0703/0706 32006G13MPS

Observacions i pronòstics meteorològics de més de 4000 aeroports (METAR i TAF).

Les estacions disponibles són els punts grocs i vermells al mapa.

Posi el ratolí al punt desitjat per veure el nom de l'estació.

Feu clic per veure les observacions i els pronòstics meteorològics.

Per canviar el mapa: feu clic els botons verds amb una creu de color negre per apropar; al botó verd amb un guió per allunyar la imatge; o en les fletxes verdes per a mapes adjacents.


METAR-TAF: